createdAt,value
2018-09-25T00:00:36.856Z,9.72
2018-09-25T00:01:17.399Z,9.61
2018-09-25T00:01:57.989Z,9.65
2018-09-25T00:02:38.560Z,9.65
2018-09-25T00:03:19.135Z,9.72
2018-09-25T00:03:59.679Z,9.62
2018-09-25T00:04:40.230Z,9.62
2018-09-25T00:05:20.787Z,9.65
2018-09-25T00:06:01.358Z,9.68
2018-09-25T00:06:41.904Z,9.65
2018-09-25T00:07:22.472Z,9.64
2018-09-25T00:08:03.059Z,9.62
2018-09-25T00:08:43.635Z,9.62
2018-09-25T00:09:24.186Z,9.61
2018-09-25T00:10:04.740Z,9.64
2018-09-25T00:10:45.293Z,9.5
2018-09-25T00:11:25.843Z,9.51
2018-09-25T00:12:06.413Z,9.61
2018-09-25T00:12:46.970Z,9.5
2018-09-25T00:13:27.530Z,9.51
2018-09-25T00:14:08.082Z,9.48
2018-09-25T00:14:48.627Z,9.54
2018-09-25T00:15:29.180Z,9.55
2018-09-25T00:16:09.734Z,9.54
2018-09-25T00:16:50.278Z,9.54
2018-09-25T00:17:30.850Z,9.61
2018-09-25T00:18:11.400Z,9.51
2018-09-25T00:18:51.969Z,9.5
2018-09-25T00:19:32.561Z,9.46
2018-09-25T00:20:13.119Z,9.56
2018-09-25T00:20:53.671Z,9.54
2018-09-25T00:21:34.222Z,9.56
2018-09-25T00:22:14.785Z,9.48
2018-09-25T00:22:55.342Z,9.54
2018-09-25T00:23:35.956Z,9.51
2018-09-25T00:24:16.516Z,9.54
2018-09-25T00:24:57.084Z,9.55
2018-09-25T00:25:37.644Z,9.46
2018-09-25T00:26:18.196Z,9.55
2018-09-25T00:26:58.745Z,9.55
2018-09-25T00:27:39.306Z,9.51
2018-09-25T00:28:19.854Z,9.55
2018-09-25T00:29:00.437Z,9.5
2018-09-25T00:29:41.026Z,9.56
2018-09-25T00:30:21.596Z,9.46
2018-09-25T00:31:02.143Z,9.56
2018-09-25T00:31:42.707Z,9.46
2018-09-25T00:32:23.274Z,9.48
2018-09-25T00:33:03.820Z,9.47
2018-09-25T00:33:44.374Z,9.48
2018-09-25T00:34:24.923Z,9.48
2018-09-25T00:35:05.475Z,9.5
2018-09-25T00:35:46.038Z,9.55
2018-09-25T00:36:26.595Z,9.51
2018-09-25T00:37:07.150Z,9.4
2018-09-25T00:37:47.730Z,9.41
2018-09-25T00:38:28.282Z,9.34
2018-09-25T00:39:08.845Z,9.34
2018-09-25T00:39:49.403Z,9.41
2018-09-25T00:40:29.959Z,9.41
2018-09-25T00:41:10.506Z,9.36
2018-09-25T00:41:51.091Z,9.39
2018-09-25T00:42:31.673Z,9.37
2018-09-25T00:43:12.242Z,9.36
2018-09-25T00:43:52.815Z,9.32
2018-09-25T00:44:33.389Z,9.32
2018-09-25T00:45:13.946Z,9.22
2018-09-25T00:45:54.508Z,9.23
2018-09-25T00:46:35.054Z,9.26
2018-09-25T00:47:15.628Z,9.25
2018-09-25T00:47:56.200Z,9.21
2018-09-25T00:48:36.765Z,9.22
2018-09-25T00:49:17.309Z,9.19
2018-09-25T00:49:57.865Z,9.22
2018-09-25T00:50:38.424Z,9.21
2018-09-25T00:51:18.980Z,9.21
2018-09-25T00:51:59.536Z,9.23
2018-09-25T00:52:40.093Z,9.23
2018-09-25T00:53:20.678Z,9.19
2018-09-25T00:54:01.239Z,9.22
2018-09-25T00:54:41.810Z,9.22
2018-09-25T00:55:22.394Z,9.22
2018-09-25T00:56:02.971Z,9.25
2018-09-25T00:56:43.568Z,9.23
2018-09-25T00:57:24.145Z,9.21
2018-09-25T00:58:04.718Z,9.25
2018-09-25T00:58:45.269Z,9.28
2018-09-25T00:59:25.838Z,9.25
2018-09-25T01:00:06.395Z,9.23
2018-09-25T01:00:46.956Z,9.19
2018-09-25T01:01:27.551Z,9.18
2018-09-25T01:02:08.099Z,9.21
2018-09-25T01:02:48.666Z,9.19
2018-09-25T01:03:29.212Z,9.21
2018-09-25T01:04:09.784Z,9.13
2018-09-25T01:04:50.343Z,9.16
2018-09-25T01:05:30.895Z,9.23
2018-09-25T01:06:11.440Z,9.19
2018-09-25T01:06:51.981Z,9.19
2018-09-25T01:07:32.560Z,9.23
2018-09-25T01:08:13.116Z,9.19
2018-09-25T01:08:53.676Z,9.19
2018-09-25T01:09:34.250Z,9.22
2018-09-25T01:10:14.801Z,9.11
2018-09-25T01:10:55.348Z,9.1
2018-09-25T01:11:35.909Z,9.11
2018-09-25T01:12:16.461Z,9.1
2018-09-25T01:12:57.014Z,9.23
2018-09-25T01:13:37.573Z,9.18
2018-09-25T01:14:18.130Z,9.08
2018-09-25T01:14:58.719Z,9.1
2018-09-25T01:15:39.284Z,9.14
2018-09-25T01:16:19.845Z,9.08
2018-09-25T01:17:00.407Z,9.21
2018-09-25T01:17:40.980Z,9.19
2018-09-25T01:18:21.547Z,9.21
2018-09-25T01:19:02.130Z,9.23
2018-09-25T01:19:42.660Z,9.18
2018-09-25T01:20:23.211Z,9.23
2018-09-25T01:21:03.768Z,9.23
2018-09-25T01:21:44.332Z,9.23
2018-09-25T01:22:24.912Z,9.22
2018-09-25T01:23:05.481Z,9.16
2018-09-25T01:23:46.056Z,9.22
2018-09-25T01:24:26.601Z,9.26
2018-09-25T01:25:07.153Z,9.18
2018-09-25T01:25:47.717Z,9.14
2018-09-25T01:26:28.275Z,9.19
2018-09-25T01:27:08.838Z,9.06
2018-09-25T01:27:49.399Z,9.11
2018-09-25T01:28:29.956Z,9.08
2018-09-25T01:29:10.514Z,9.1
2018-09-25T01:29:51.058Z,9.13
2018-09-25T01:30:31.616Z,9.08
2018-09-25T01:31:12.178Z,9.06
2018-09-25T01:31:52.755Z,9.11
2018-09-25T01:32:33.309Z,9.13
2018-09-25T01:33:13.872Z,9.06
2018-09-25T01:33:54.438Z,9.03
2018-09-25T01:34:35.020Z,9.06
2018-09-25T01:35:15.601Z,9.04
2018-09-25T01:35:56.156Z,8.99
2018-09-25T01:36:36.708Z,9.1
2018-09-25T01:37:17.280Z,8.99
2018-09-25T01:37:57.846Z,9
2018-09-25T01:38:38.406Z,9.02
2018-09-25T01:39:18.959Z,8.99
2018-09-25T01:39:59.524Z,8.99
2018-09-25T01:40:40.086Z,9.11
2018-09-25T01:41:20.664Z,9.02
2018-09-25T01:42:01.201Z,8.99
2018-09-25T01:42:41.750Z,8.97
2018-09-25T01:43:22.310Z,9.11
2018-09-25T01:44:02.867Z,8.94
2018-09-25T01:44:43.439Z,9.13
2018-09-25T01:45:23.990Z,8.97
2018-09-25T01:46:04.559Z,9.06
2018-09-25T01:46:45.124Z,8.99
2018-09-25T01:47:25.694Z,9
2018-09-25T01:48:06.260Z,9.03
2018-09-25T01:48:46.812Z,9.03
2018-09-25T01:49:27.351Z,8.92
2018-09-25T01:50:07.913Z,8.94
2018-09-25T01:50:48.469Z,8.97
2018-09-25T01:51:29.019Z,8.91
2018-09-25T01:52:09.572Z,9
2018-09-25T01:52:50.133Z,8.97
2018-09-25T01:53:30.702Z,8.91
2018-09-25T01:54:11.251Z,8.99
2018-09-25T01:54:51.821Z,8.97
2018-09-25T01:55:32.372Z,9.02
2018-09-25T01:56:12.959Z,9
2018-09-25T01:56:53.523Z,8.97
2018-09-25T01:57:34.066Z,8.95
2018-09-25T01:58:14.620Z,8.94
2018-09-25T01:58:55.178Z,8.92
2018-09-25T01:59:35.747Z,8.94
2018-09-25T02:00:16.306Z,8.95
2018-09-25T02:00:56.859Z,8.97
2018-09-25T02:01:37.435Z,8.95
2018-09-25T02:02:18.016Z,8.95
2018-09-25T02:02:58.595Z,8.94
2018-09-25T02:03:39.167Z,9.03
2018-09-25T02:04:19.726Z,8.85
2018-09-25T02:05:00.312Z,8.89
2018-09-25T02:05:40.967Z,8.95
2018-09-25T02:06:21.475Z,8.92
2018-09-25T02:07:02.033Z,8.95
2018-09-25T02:07:42.617Z,8.91
2018-09-25T02:08:23.202Z,8.91
2018-09-25T02:09:03.766Z,8.91
2018-09-25T02:09:44.335Z,8.92
2018-09-25T02:10:24.908Z,8.94
2018-09-25T02:11:05.472Z,8.94
2018-09-25T02:11:46.026Z,8.94
2018-09-25T02:12:26.593Z,8.94
2018-09-25T02:13:07.156Z,8.92
2018-09-25T02:13:47.736Z,8.95
2018-09-25T02:14:28.319Z,8.94
2018-09-25T02:15:08.871Z,8.95
2018-09-25T02:15:49.437Z,8.92
2018-09-25T02:16:29.994Z,8.89
2018-09-25T02:17:10.544Z,8.87
2018-09-25T02:17:51.108Z,8.84
2018-09-25T02:18:31.649Z,8.89
2018-09-25T02:19:12.199Z,8.91
2018-09-25T02:19:52.774Z,8.94
2018-09-25T02:20:33.321Z,8.97
2018-09-25T02:21:13.870Z,8.89
2018-09-25T02:21:54.436Z,8.94
2018-09-25T02:22:34.997Z,8.92
2018-09-25T02:23:15.550Z,8.88
2018-09-25T02:23:56.128Z,8.88
2018-09-25T02:24:36.680Z,8.84
2018-09-25T02:25:17.239Z,8.91
2018-09-25T02:25:57.786Z,8.89
2018-09-25T02:26:38.361Z,8.94
2018-09-25T02:27:18.905Z,8.91
2018-09-25T02:27:59.459Z,8.89
2018-09-25T02:28:40.021Z,8.87
2018-09-25T02:29:20.582Z,8.91
2018-09-25T02:30:01.149Z,8.85
2018-09-25T02:30:41.706Z,8.88
2018-09-25T02:31:22.262Z,8.91
2018-09-25T02:32:02.836Z,8.87
2018-09-25T02:32:43.394Z,8.89
2018-09-25T02:33:23.973Z,8.85
2018-09-25T02:34:04.541Z,8.84
2018-09-25T02:34:45.120Z,8.87
2018-09-25T02:35:25.671Z,8.87
2018-09-25T02:36:06.340Z,8.81
2018-09-25T02:36:46.893Z,8.88
2018-09-25T02:37:27.490Z,8.85
2018-09-25T02:38:08.063Z,8.79
2018-09-25T02:38:48.611Z,8.88
2018-09-25T02:39:29.164Z,8.89
2018-09-25T02:40:09.726Z,8.74
2018-09-25T02:40:50.282Z,8.78
2018-09-25T02:41:30.833Z,8.79
2018-09-25T02:42:11.383Z,8.78
2018-09-25T02:42:51.932Z,8.74
2018-09-25T02:43:32.488Z,8.79
2018-09-25T02:44:13.035Z,8.78
2018-09-25T02:44:53.598Z,8.78
2018-09-25T02:45:34.197Z,8.88
2018-09-25T02:46:14.756Z,8.71
2018-09-25T02:46:55.323Z,8.76
2018-09-25T02:47:35.888Z,8.76
2018-09-25T02:48:16.466Z,8.79
2018-09-25T02:48:57.071Z,8.84
2018-09-25T02:49:37.627Z,8.78
2018-09-25T02:50:18.194Z,8.82
2018-09-25T02:50:58.767Z,8.85
2018-09-25T02:51:39.381Z,8.74
2018-09-25T02:52:19.955Z,8.84
2018-09-25T02:53:00.489Z,8.74
2018-09-25T02:53:41.108Z,8.82
2018-09-25T02:54:21.643Z,8.74
2018-09-25T02:55:02.213Z,8.74
2018-09-25T02:55:42.803Z,8.84
2018-09-25T02:56:23.353Z,8.74
2018-09-25T02:57:03.904Z,8.78
2018-09-25T02:57:44.464Z,8.82
2018-09-25T02:58:25.018Z,8.79
2018-09-25T02:59:05.587Z,8.74
2018-09-25T02:59:46.169Z,8.81
2018-09-25T03:00:26.759Z,8.84
2018-09-25T03:01:07.297Z,8.78
2018-09-25T03:01:47.849Z,8.79
2018-09-25T03:02:28.442Z,8.81
2018-09-25T03:03:09.003Z,8.81
2018-09-25T03:03:49.557Z,8.79
2018-09-25T03:04:30.131Z,8.81
2018-09-25T03:05:10.709Z,8.76
2018-09-25T03:05:51.269Z,8.74
2018-09-25T03:06:31.837Z,8.74
2018-09-25T03:07:12.378Z,8.76
2018-09-25T03:07:52.930Z,8.74
2018-09-25T03:08:33.485Z,8.73
2018-09-25T03:09:14.108Z,8.79
2018-09-25T03:09:54.707Z,8.79
2018-09-25T03:10:35.270Z,8.76
2018-09-25T03:11:15.828Z,8.74
2018-09-25T03:11:56.394Z,8.74
2018-09-25T03:12:36.961Z,8.76
2018-09-25T03:13:17.509Z,8.74
2018-09-25T03:13:58.056Z,8.73
2018-09-25T03:14:38.616Z,8.74
2018-09-25T03:15:19.189Z,8.71
2018-09-25T03:15:59.778Z,8.78
2018-09-25T03:16:40.334Z,8.73
2018-09-25T03:17:20.897Z,8.76
2018-09-25T03:18:01.477Z,8.66
2018-09-25T03:18:42.039Z,8.7
2018-09-25T03:19:22.633Z,8.71
2018-09-25T03:20:03.145Z,8.69
2018-09-25T03:20:43.702Z,8.78
2018-09-25T03:21:24.250Z,8.71
2018-09-25T03:22:04.816Z,8.74
2018-09-25T03:22:45.389Z,8.74
2018-09-25T03:23:25.934Z,8.74
2018-09-25T03:24:06.531Z,8.63
2018-09-25T03:24:47.095Z,8.66
2018-09-25T03:25:27.662Z,8.69
2018-09-25T03:26:08.213Z,8.73
2018-09-25T03:26:48.756Z,8.63
2018-09-25T03:27:29.314Z,8.63
2018-09-25T03:28:09.887Z,8.69
2018-09-25T03:28:50.448Z,8.76
2018-09-25T03:29:31.043Z,8.7
2018-09-25T03:30:11.645Z,8.64
2018-09-25T03:30:52.189Z,8.69
2018-09-25T03:31:32.772Z,8.61
2018-09-25T03:32:13.353Z,8.69
2018-09-25T03:32:53.888Z,8.66
2018-09-25T03:33:34.459Z,8.66
2018-09-25T03:34:15.009Z,8.7
2018-09-25T03:34:55.568Z,8.69
2018-09-25T03:35:36.126Z,8.61
2018-09-25T03:36:16.718Z,8.64
2018-09-25T03:36:57.283Z,8.69
2018-09-25T03:37:37.846Z,8.61
2018-09-25T03:38:18.389Z,8.67
2018-09-25T03:38:58.983Z,8.6
2018-09-25T03:39:39.569Z,8.61
2018-09-25T03:40:20.130Z,8.58
2018-09-25T03:41:00.717Z,8.58
2018-09-25T03:41:41.271Z,8.6
2018-09-25T03:42:21.834Z,8.63
2018-09-25T03:43:02.379Z,8.58
2018-09-25T03:43:42.966Z,8.63
2018-09-25T03:44:23.553Z,8.64
2018-09-25T03:45:04.105Z,8.58
2018-09-25T03:45:44.668Z,8.58
2018-09-25T03:46:25.228Z,8.64
2018-09-25T03:47:05.817Z,8.66
2018-09-25T03:47:46.383Z,8.64
2018-09-25T03:48:26.942Z,8.66
2018-09-25T03:49:07.496Z,8.61
2018-09-25T03:49:48.089Z,8.61
2018-09-25T03:50:28.646Z,8.6
2018-09-25T03:51:09.196Z,8.64
2018-09-25T03:51:49.779Z,8.63
2018-09-25T03:52:30.352Z,8.63
2018-09-25T03:53:10.904Z,8.63
2018-09-25T03:53:51.473Z,8.55
2018-09-25T03:54:32.042Z,8.6
2018-09-25T03:55:12.631Z,8.66
2018-09-25T03:55:53.236Z,8.6
2018-09-25T03:56:33.794Z,8.69
2018-09-25T03:57:14.365Z,8.64
2018-09-25T03:57:54.928Z,8.66
2018-09-25T03:58:35.504Z,8.66
2018-09-25T03:59:16.063Z,8.58
2018-09-25T03:59:56.634Z,8.66
2018-09-25T04:00:37.172Z,8.6
2018-09-25T04:01:17.729Z,8.6
2018-09-25T04:01:58.305Z,8.61
2018-09-25T04:02:38.883Z,8.6
2018-09-25T04:03:19.418Z,8.64
2018-09-25T04:03:59.990Z,8.56
2018-09-25T04:04:40.677Z,8.53
2018-09-25T04:05:21.334Z,8.53
2018-09-25T04:06:01.929Z,8.51
2018-09-25T04:06:42.449Z,8.55
2018-09-25T04:07:23.043Z,8.52
2018-09-25T04:08:03.594Z,8.53
2018-09-25T04:08:44.146Z,8.53
2018-09-25T04:09:24.683Z,8.58
2018-09-25T04:10:05.263Z,8.49
2018-09-25T04:10:45.817Z,8.53
2018-09-25T04:11:26.435Z,8.66
2018-09-25T04:12:06.991Z,8.55
2018-09-25T04:12:47.543Z,8.58
2018-09-25T04:13:28.092Z,8.58
2018-09-25T04:14:08.648Z,8.63
2018-09-25T04:14:49.194Z,8.51
2018-09-25T04:15:29.753Z,8.61
2018-09-25T04:16:10.309Z,8.66
2018-09-25T04:16:50.910Z,8.52
2018-09-25T04:17:31.493Z,8.52
2018-09-25T04:18:12.043Z,8.46
2018-09-25T04:18:52.639Z,8.52
2018-09-25T04:19:33.182Z,8.52
2018-09-25T04:20:13.748Z,8.49
2018-09-25T04:20:54.344Z,8.46
2018-09-25T04:21:34.906Z,8.52
2018-09-25T04:22:15.483Z,8.49
2018-09-25T04:22:56.043Z,8.48
2018-09-25T04:23:36.594Z,8.53
2018-09-25T04:24:17.155Z,8.51
2018-09-25T04:24:57.735Z,8.53
2018-09-25T04:25:38.307Z,8.52
2018-09-25T04:26:18.851Z,8.51
2018-09-25T04:26:59.408Z,8.49
2018-09-25T04:27:39.953Z,8.51
2018-09-25T04:28:20.522Z,8.46
2018-09-25T04:29:01.086Z,8.49
2018-09-25T04:29:41.656Z,8.53
2018-09-25T04:30:22.224Z,8.51
2018-09-25T04:31:02.786Z,8.53
2018-09-25T04:31:43.434Z,8.53
2018-09-25T04:32:23.925Z,8.55
2018-09-25T04:33:04.481Z,8.52
2018-09-25T04:33:45.041Z,8.52
2018-09-25T04:34:25.619Z,8.46
2018-09-25T04:35:06.181Z,8.42
2018-09-25T04:35:46.744Z,8.52
2018-09-25T04:36:27.316Z,8.48
2018-09-25T04:37:07.972Z,8.36
2018-09-25T04:37:48.430Z,8.55
2018-09-25T04:38:28.981Z,8.41
2018-09-25T04:39:09.532Z,8.53
2018-09-25T04:39:50.089Z,8.48
2018-09-25T04:40:30.648Z,8.48
2018-09-25T04:41:11.220Z,8.46
2018-09-25T04:41:51.784Z,8.48
2018-09-25T04:42:32.363Z,8.48
2018-09-25T04:43:12.928Z,8.34
2018-09-25T04:43:53.526Z,8.45
2018-09-25T04:44:34.109Z,8.52
2018-09-25T04:45:14.670Z,8.41
2018-09-25T04:45:55.294Z,8.45
2018-09-25T04:46:35.903Z,8.38
2018-09-25T04:47:16.548Z,8.42
2018-09-25T04:47:57.085Z,8.42
2018-09-25T04:48:37.637Z,8.38
2018-09-25T04:49:18.210Z,8.42
2018-09-25T04:49:58.760Z,8.44
2018-09-25T04:50:39.320Z,8.38
2018-09-25T04:51:19.887Z,8.37
2018-09-25T04:52:00.470Z,8.36
2018-09-25T04:52:41.043Z,8.41
2018-09-25T04:53:21.720Z,8.37
2018-09-25T04:54:02.299Z,8.42
2018-09-25T04:54:42.861Z,8.34
2018-09-25T04:55:23.589Z,8.44
2018-09-25T04:56:03.968Z,8.42
2018-09-25T04:56:44.520Z,8.42
2018-09-25T04:57:25.093Z,8.36
2018-09-25T04:58:05.675Z,8.38
2018-09-25T04:58:46.806Z,8.38
2018-09-25T04:59:27.602Z,8.36
2018-09-25T05:00:08.176Z,8.36
2018-09-25T05:00:48.728Z,8.37
2018-09-25T05:01:29.436Z,8.36
2018-09-25T05:02:10.920Z,8.42
2018-09-25T05:02:51.811Z,8.42
2018-09-25T05:03:32.542Z,8.34
2018-09-25T05:04:13.161Z,8.31
2018-09-25T05:04:53.702Z,8.41
2018-09-25T05:05:34.307Z,8.41
2018-09-25T05:06:14.836Z,8.36
2018-09-25T05:06:55.413Z,8.31
2018-09-25T05:07:35.996Z,8.36
2018-09-25T05:08:16.547Z,8.38
2018-09-25T05:08:57.109Z,8.38
2018-09-25T05:09:37.664Z,8.38
2018-09-25T05:10:18.242Z,8.3
2018-09-25T05:10:58.807Z,8.38
2018-09-25T05:11:39.365Z,8.37
2018-09-25T05:12:19.922Z,8.36
2018-09-25T05:13:00.510Z,8.33
2018-09-25T05:13:43.937Z,8.38
2018-09-25T05:14:24.514Z,8.38
2018-09-25T05:15:05.081Z,8.33
2018-09-25T05:15:45.629Z,8.27
2018-09-25T05:16:26.189Z,8.34
2018-09-25T05:17:06.781Z,8.37
2018-09-25T05:17:47.350Z,8.37
2018-09-25T05:18:32.128Z,8.33
2018-09-25T05:19:12.713Z,8.31
2018-09-25T05:19:53.252Z,8.36
2018-09-25T05:20:33.823Z,8.36
2018-09-25T05:21:14.388Z,8.36
2018-09-25T05:21:54.925Z,8.36
2018-09-25T05:22:35.502Z,8.36
2018-09-25T05:23:16.073Z,8.41
2018-09-25T05:23:56.633Z,8.33
2018-09-25T05:24:37.199Z,8.33
2018-09-25T05:25:17.768Z,8.31
2018-09-25T05:25:58.330Z,8.37
2018-09-25T05:26:38.911Z,8.33
2018-09-25T05:27:19.472Z,8.38
2018-09-25T05:28:00.030Z,8.41
2018-09-25T05:28:40.583Z,8.31
2018-09-25T05:29:21.155Z,8.34
2018-09-25T05:30:01.685Z,8.42
2018-09-25T05:30:42.237Z,8.34
2018-09-25T05:31:22.810Z,8.42
2018-09-25T05:32:03.361Z,8.45
2018-09-25T05:32:43.926Z,8.3
2018-09-25T05:33:24.470Z,8.42
2018-09-25T05:34:05.047Z,8.42
2018-09-25T05:34:45.590Z,8.33
2018-09-25T05:35:26.151Z,8.44
2018-09-25T05:36:06.721Z,8.38
2018-09-25T05:36:47.345Z,8.41
2018-09-25T05:37:27.922Z,8.36
2018-09-25T05:38:08.498Z,8.42
2018-09-25T05:38:49.080Z,8.42
2018-09-25T05:39:29.650Z,8.36
2018-09-25T05:40:10.213Z,8.42
2018-09-25T05:40:50.804Z,8.41
2018-09-25T05:41:31.377Z,8.42
2018-09-25T05:42:11.908Z,8.44
2018-09-25T05:42:52.483Z,8.44
2018-09-25T05:43:33.039Z,8.49
2018-09-25T05:44:13.614Z,8.46
2018-09-25T05:44:54.164Z,8.45
2018-09-25T05:45:34.884Z,8.42
2018-09-25T05:46:15.805Z,8.44
2018-09-25T05:46:56.416Z,8.42
2018-09-25T05:47:37.002Z,8.45
2018-09-25T05:48:17.613Z,8.38
2018-09-25T05:48:58.337Z,8.45
2018-09-25T05:49:38.762Z,8.36
2018-09-25T05:50:19.329Z,8.41
2018-09-25T05:50:59.941Z,8.49
2018-09-25T05:51:40.485Z,8.44
2018-09-25T05:52:21.025Z,8.45
2018-09-25T05:53:01.612Z,8.49
2018-09-25T05:53:42.203Z,8.51
2018-09-25T05:54:22.750Z,8.45
2018-09-25T05:55:03.317Z,8.45
2018-09-25T05:55:43.955Z,8.38
2018-09-25T05:56:24.443Z,8.48
2018-09-25T05:57:04.982Z,8.41
2018-09-25T05:57:45.596Z,8.41
2018-09-25T05:58:26.155Z,8.53
2018-09-25T05:59:06.712Z,8.49
2018-09-25T05:59:47.294Z,8.52
2018-09-25T06:00:27.869Z,8.49
2018-09-25T06:01:08.564Z,8.49
2018-09-25T06:01:48.987Z,8.56
2018-09-25T06:02:29.552Z,8.52
2018-09-25T06:03:10.116Z,8.52
2018-09-25T06:03:50.747Z,8.51
2018-09-25T06:04:31.244Z,8.51
2018-09-25T06:05:12.345Z,8.61
2018-09-25T06:05:53.032Z,8.63
2018-09-25T06:06:33.941Z,8.58
2018-09-25T06:07:14.577Z,8.53
2018-09-25T06:07:55.256Z,8.51
2018-09-25T06:08:35.952Z,8.48
2018-09-25T06:09:16.558Z,8.51
2018-09-25T06:09:57.084Z,8.51
2018-09-25T06:10:37.666Z,8.53
2018-09-25T06:11:18.284Z,8.49
2018-09-25T06:11:58.895Z,8.56
2018-09-25T06:12:39.449Z,8.63
2018-09-25T06:13:20.035Z,8.61
2018-09-25T06:14:00.593Z,8.56
2018-09-25T06:14:41.152Z,8.61
2018-09-25T06:15:21.719Z,8.6
2018-09-25T06:16:02.302Z,8.61
2018-09-25T06:16:43.217Z,8.63
2018-09-25T06:17:23.809Z,8.64
2018-09-25T06:18:04.377Z,8.69
2018-09-25T06:18:44.953Z,8.6
2018-09-25T06:19:25.626Z,8.58
2018-09-25T06:20:06.367Z,8.58
2018-09-25T06:20:48.092Z,8.63
2018-09-25T06:21:28.753Z,8.64
2018-09-25T06:22:09.312Z,8.61
2018-09-25T06:22:49.907Z,8.64
2018-09-25T06:23:30.479Z,8.67
2018-09-25T06:24:11.042Z,8.73
2018-09-25T06:24:53.739Z,8.64
2018-09-25T06:25:34.506Z,8.63
2018-09-25T06:26:15.093Z,8.7
2018-09-25T06:26:55.719Z,8.74
2018-09-25T06:27:36.507Z,8.71
2018-09-25T06:28:17.904Z,8.64
2018-09-25T06:28:58.439Z,8.67
2018-09-25T06:29:38.949Z,8.71
2018-09-25T06:30:19.572Z,8.74
2018-09-25T06:31:00.380Z,8.74
2018-09-25T06:31:40.950Z,8.7
2018-09-25T06:32:21.718Z,8.78
2018-09-25T06:33:02.313Z,8.78
2018-09-25T06:33:42.888Z,8.79
2018-09-25T06:34:23.526Z,8.79
2018-09-25T06:35:04.104Z,8.87
2018-09-25T06:35:44.697Z,8.85
2018-09-25T06:36:25.241Z,8.87
2018-09-25T06:37:05.847Z,8.87
2018-09-25T06:37:46.364Z,8.79
2018-09-25T06:38:26.955Z,8.87
2018-09-25T06:39:07.496Z,8.91
2018-09-25T06:39:48.104Z,8.87
2018-09-25T06:40:28.653Z,8.91
2018-09-25T06:41:09.187Z,8.91
2018-09-25T06:41:49.773Z,8.87
2018-09-25T06:42:30.359Z,8.91
2018-09-25T06:43:11.843Z,8.94
2018-09-25T06:43:52.495Z,8.97
2018-09-25T06:44:33.077Z,8.95
2018-09-25T06:45:15.381Z,8.87
2018-09-25T06:45:56.028Z,8.92
2018-09-25T06:46:36.661Z,8.89
2018-09-25T06:47:17.491Z,8.97
2018-09-25T06:47:59.225Z,8.91
2018-09-25T06:48:39.549Z,8.92
2018-09-25T06:49:20.229Z,9.02
2018-09-25T06:50:01.056Z,8.94
2018-09-25T06:50:41.760Z,8.95
2018-09-25T06:51:22.531Z,8.95
2018-09-25T06:52:03.096Z,9.04
2018-09-25T06:52:43.650Z,8.95
2018-09-25T06:53:24.215Z,9
2018-09-25T06:54:04.763Z,9
2018-09-25T06:54:45.524Z,8.97
2018-09-25T06:55:26.073Z,9.13
2018-09-25T06:56:06.650Z,9.14
2018-09-25T06:56:47.411Z,9.03
2018-09-25T06:57:28.246Z,9.06
2018-09-25T06:58:09.033Z,9.11
2018-09-25T06:58:49.601Z,9.1
2018-09-25T06:59:30.208Z,9.14
2018-09-25T07:00:10.758Z,9.19
2018-09-25T07:00:51.389Z,9.19
2018-09-25T07:01:31.915Z,9.19
2018-09-25T07:02:12.482Z,9.23
2018-09-25T07:02:53.048Z,9.25
2018-09-25T07:03:33.590Z,9.23
2018-09-25T07:04:14.158Z,9.28
2018-09-25T07:04:54.697Z,9.26
2018-09-25T07:05:35.255Z,9.31
2018-09-25T07:06:15.809Z,9.28
2018-09-25T07:06:56.365Z,9.37
2018-09-25T07:07:37.089Z,9.29
2018-09-25T07:08:17.656Z,9.32
2018-09-25T07:08:58.202Z,9.4
2018-09-25T07:09:38.763Z,9.37
2018-09-25T07:10:19.369Z,9.4
2018-09-25T07:10:59.871Z,9.41
2018-09-25T07:11:40.419Z,9.5
2018-09-25T07:12:21.881Z,9.54
2018-09-25T07:13:01.529Z,9.51
2018-09-25T07:13:42.097Z,9.61
2018-09-25T07:14:22.639Z,9.61
2018-09-25T07:15:03.184Z,9.76
2018-09-25T07:15:43.733Z,9.73
2018-09-25T07:16:24.302Z,9.74
2018-09-25T07:17:04.860Z,9.72
2018-09-25T07:17:45.487Z,9.79
2018-09-25T07:18:26.013Z,9.89
2018-09-25T07:19:06.564Z,9.97
2018-09-25T07:19:47.122Z,10.04
2018-09-25T07:20:27.714Z,10.17
2018-09-25T07:21:08.320Z,10.22
2018-09-25T07:21:48.914Z,10.4
2018-09-25T07:22:29.656Z,10.57
2018-09-25T07:23:10.430Z,10.71
2018-09-25T07:23:50.990Z,10.87
2018-09-25T07:24:31.600Z,11.18
2018-09-25T07:25:12.208Z,11.43
2018-09-25T07:25:52.692Z,11.68
2018-09-25T07:26:33.257Z,11.81
2018-09-25T07:27:13.816Z,12.15
2018-09-25T07:27:54.390Z,12.39
2018-09-25T07:28:34.927Z,12.72
2018-09-25T07:29:15.477Z,12.93
2018-09-25T07:29:56.050Z,13.04
2018-09-25T07:30:36.612Z,13.33
2018-09-25T07:31:17.176Z,13.5
2018-09-25T07:31:57.739Z,13.62
2018-09-25T07:32:38.305Z,13.72
2018-09-25T07:33:18.869Z,13.86
2018-09-25T07:33:59.442Z,14
2018-09-25T07:34:40.018Z,14.18
2018-09-25T07:35:20.566Z,14.4
2018-09-25T07:36:01.127Z,14.55
2018-09-25T07:36:41.711Z,14.62
2018-09-25T07:37:22.263Z,14.78
2018-09-25T07:38:02.830Z,14.92
2018-09-25T07:38:43.385Z,15.17
2018-09-25T07:39:23.960Z,15.25
2018-09-25T07:40:04.542Z,15.54
2018-09-25T07:40:45.117Z,15.8
2018-09-25T07:41:25.702Z,15.88
2018-09-25T07:42:06.262Z,15.98
2018-09-25T07:42:46.823Z,16.21
2018-09-25T07:43:27.395Z,16.33
2018-09-25T07:44:07.968Z,16.51
2018-09-25T07:44:48.529Z,16.54
2018-09-25T07:45:29.099Z,16.65
2018-09-25T07:46:09.662Z,16.78
2018-09-25T07:46:50.232Z,16.78
2018-09-25T07:47:30.812Z,16.93
2018-09-25T07:48:11.375Z,17.02
2018-09-25T07:48:51.942Z,17.14
2018-09-25T07:49:35.461Z,17.23
2018-09-25T07:50:16.024Z,17.23
2018-09-25T07:50:56.579Z,17.38
2018-09-25T07:51:37.146Z,17.33
2018-09-25T07:52:17.709Z,17.42
2018-09-25T07:52:58.274Z,17.39
2018-09-25T07:53:38.840Z,17.33
2018-09-25T07:54:19.407Z,17.31
2018-09-25T07:54:59.979Z,17.34
2018-09-25T07:55:40.655Z,17.38
2018-09-25T07:56:21.108Z,17.34
2018-09-25T07:57:01.655Z,17.38
2018-09-25T07:57:42.255Z,17.52
2018-09-25T07:58:22.861Z,17.45
2018-09-25T07:59:03.438Z,17.64
2018-09-25T07:59:44.006Z,17.78
2018-09-25T08:00:24.580Z,17.83
2018-09-25T08:01:05.163Z,17.82
2018-09-25T08:01:45.738Z,17.94
2018-09-25T08:02:26.303Z,17.98
2018-09-25T08:03:07.029Z,18.03
2018-09-25T08:03:47.469Z,18.05
2018-09-25T08:04:28.041Z,18.01
2018-09-25T08:05:08.654Z,18
2018-09-25T08:05:49.232Z,17.86
2018-09-25T08:06:29.930Z,17.89
2018-09-25T08:07:10.508Z,17.85
2018-09-25T08:07:51.085Z,17.94
2018-09-25T08:08:31.671Z,17.82
2018-09-25T08:09:12.467Z,17.74
2018-09-25T08:09:53.101Z,17.46
2018-09-25T08:10:33.693Z,17.39
2018-09-25T08:11:14.291Z,17.36
2018-09-25T08:11:54.869Z,17.23
2018-09-25T08:12:35.434Z,17.16
2018-09-25T08:13:16.008Z,17.26
2018-09-25T08:13:56.575Z,17.23
2018-09-25T08:14:37.151Z,17.16
2018-09-25T08:15:17.743Z,17.22
2018-09-25T08:15:58.292Z,17.24
2018-09-25T08:16:38.894Z,17.19
2018-09-25T08:17:19.479Z,17.22
2018-09-25T08:18:00.053Z,17.22
2018-09-25T08:18:40.620Z,17.16
2018-09-25T08:19:21.193Z,17.2
2018-09-25T08:20:01.772Z,17.15
2018-09-25T08:20:42.346Z,17.14
2018-09-25T08:21:22.956Z,17.08
2018-09-25T08:22:03.510Z,17.04
2018-09-25T08:22:44.081Z,17.01
2018-09-25T08:23:24.653Z,17.01
2018-09-25T08:24:05.223Z,17.08
2018-09-25T08:24:45.799Z,16.94
2018-09-25T08:25:26.438Z,16.99
2018-09-25T08:26:07.020Z,16.99
2018-09-25T08:26:47.587Z,16.99
2018-09-25T08:27:28.154Z,16.89
2018-09-25T08:28:08.749Z,16.96
2018-09-25T08:28:49.348Z,16.9
2018-09-25T08:29:29.916Z,16.99
2018-09-25T08:30:10.492Z,16.99
2018-09-25T08:30:51.061Z,16.97
2018-09-25T08:31:31.636Z,16.96
2018-09-25T08:32:12.210Z,16.94
2018-09-25T08:32:52.773Z,16.97
2018-09-25T08:33:33.350Z,16.93
2018-09-25T08:34:13.899Z,16.91
2018-09-25T08:34:54.525Z,16.93
2018-09-25T08:35:35.059Z,16.96
2018-09-25T08:36:15.629Z,16.84
2018-09-25T08:36:56.189Z,16.83
2018-09-25T08:37:36.756Z,16.79
2018-09-25T08:38:17.484Z,16.91
2018-09-25T08:38:58.086Z,16.89
2018-09-25T08:39:38.626Z,16.79
2018-09-25T08:40:19.192Z,16.79
2018-09-25T08:40:59.755Z,16.86
2018-09-25T08:41:40.339Z,16.87
2018-09-25T08:42:20.925Z,16.83
2018-09-25T08:43:01.488Z,16.71
2018-09-25T08:43:42.054Z,16.75
2018-09-25T08:44:22.628Z,16.72
2018-09-25T08:45:03.206Z,16.65
2018-09-25T08:45:43.821Z,16.71
2018-09-25T08:46:24.358Z,16.76
2018-09-25T08:47:04.956Z,16.72
2018-09-25T08:47:45.555Z,16.75
2018-09-25T08:48:26.127Z,16.68
2018-09-25T08:49:06.698Z,16.72
2018-09-25T08:49:47.251Z,16.71
2018-09-25T08:50:27.839Z,16.76
2018-09-25T08:51:08.412Z,16.76
2018-09-25T08:51:48.977Z,16.78
2018-09-25T08:52:29.543Z,16.72
2018-09-25T08:53:10.133Z,16.71
2018-09-25T08:53:50.704Z,16.72
2018-09-25T08:54:31.290Z,16.74
2018-09-25T08:55:11.836Z,16.74
2018-09-25T08:55:52.397Z,16.72
2018-09-25T08:56:32.977Z,16.71
2018-09-25T08:57:13.591Z,16.76
2018-09-25T08:57:54.147Z,16.89
2018-09-25T08:58:34.707Z,16.76